CTV949 WIDD-WARR
Flight info
| Callsign | CTV949 |
|---|---|
| Flight time | 2h 11m |
| Altitude | 35000 |
| Route | SURGA M635 SUMDI |
| Aircraft | A320/M-SDE3FGHIRWY/LB1 |
Departure
| Time | 2026-05-07 16:28 |
|---|---|
| Airport | Hang Nadim International Airport (WIDD) |
Arrival
| Time | 2026-05-07 18:39 |
|---|---|
| Airport | Juanda International Airport (WARR) |
| Time | Latitude | Longitude | Altitude | Speed | Heading |
|---|---|---|---|---|---|
| 2026-05-07 16:01 | 1.12161 | 104.11512 | 109 ft | 0 kts | 314° |
| 2026-05-07 16:18 | 1.12163 | 104.11510 | 108 ft | 0 kts | 314° |
| 2026-05-07 16:18 | 1.12153 | 104.11520 | 110 ft | 2 kts | 327° |
| 2026-05-07 16:19 | 1.12140 | 104.11526 | 111 ft | 2 kts | 342° |
| 2026-05-07 16:19 | 1.12125 | 104.11529 | 112 ft | 2 kts | 359° |
| 2026-05-07 16:19 | 1.12110 | 104.11527 | 111 ft | 2 kts | 14° |
| 2026-05-07 16:19 | 1.12096 | 104.11522 | 109 ft | 2 kts | 32° |
| 2026-05-07 16:20 | 1.12086 | 104.11513 | 109 ft | 0 kts | 46° |
| 2026-05-07 16:20 | 1.12085 | 104.11513 | 110 ft | 0 kts | 46° |
| 2026-05-07 16:21 | 1.12090 | 104.11519 | 110 ft | 2 kts | 49° |
| 2026-05-07 16:22 | 1.12095 | 104.11526 | 110 ft | 0 kts | 59° |
| 2026-05-07 16:22 | 1.12102 | 104.11576 | 113 ft | 7 kts | 110° |
| 2026-05-07 16:22 | 1.12078 | 104.11636 | 109 ft | 5 kts | 85° |
| 2026-05-07 16:22 | 1.12102 | 104.11671 | 107 ft | 8 kts | 42° |
| 2026-05-07 16:23 | 1.12159 | 104.11718 | 101 ft | 12 kts | 39° |
| 2026-05-07 16:23 | 1.12224 | 104.11774 | 95 ft | 10 kts | 41° |
| 2026-05-07 16:23 | 1.12293 | 104.11835 | 88 ft | 13 kts | 41° |
| 2026-05-07 16:23 | 1.12377 | 104.11909 | 79 ft | 17 kts | 41° |
| 2026-05-07 16:24 | 1.12479 | 104.11998 | 67 ft | 19 kts | 41° |
| 2026-05-07 16:24 | 1.12565 | 104.12073 | 60 ft | 14 kts | 41° |
| 2026-05-07 16:24 | 1.12637 | 104.12137 | 57 ft | 14 kts | 42° |
| 2026-05-07 16:24 | 1.12712 | 104.12204 | 57 ft | 14 kts | 42° |
| 2026-05-07 16:25 | 1.12785 | 104.12270 | 60 ft | 12 kts | 42° |
| 2026-05-07 16:25 | 1.12852 | 104.12328 | 60 ft | 13 kts | 40° |
| 2026-05-07 16:25 | 1.12919 | 104.12387 | 63 ft | 13 kts | 41° |
| 2026-05-07 16:25 | 1.12994 | 104.12452 | 63 ft | 15 kts | 41° |
| 2026-05-07 16:26 | 1.13076 | 104.12524 | 63 ft | 14 kts | 41° |
| 2026-05-07 16:26 | 1.13149 | 104.12588 | 60 ft | 11 kts | 41° |
| 2026-05-07 16:26 | 1.13212 | 104.12644 | 60 ft | 11 kts | 42° |
| 2026-05-07 16:26 | 1.13242 | 104.12682 | 61 ft | 9 kts | 65° |
| 2026-05-07 16:27 | 1.13214 | 104.12761 | 60 ft | 10 kts | 131° |
| 2026-05-07 16:27 | 1.13145 | 104.12795 | 60 ft | 13 kts | 199° |
| 2026-05-07 16:27 | 1.12993 | 104.12669 | 60 ft | 59 kts | 221° |
| 2026-05-07 16:27 | 1.12514 | 104.12249 | 62 ft | 121 kts | 221° |
| 2026-05-07 16:28 | 1.11747 | 104.11575 | 130 ft | 169 kts | 221° |
| 2026-05-07 16:28 | 1.10857 | 104.10780 | 727 ft | 174 kts | 221° |
| 2026-05-07 16:28 | 1.09960 | 104.09958 | 1232 ft | 182 kts | 221° |
| 2026-05-07 16:28 | 1.08977 | 104.09064 | 1626 ft | 198 kts | 220° |
| 2026-05-07 16:29 | 1.07911 | 104.08103 | 2014 ft | 215 kts | 220° |
| 2026-05-07 16:29 | 1.06763 | 104.07079 | 2379 ft | 234 kts | 218° |
| 2026-05-07 16:29 | 1.05271 | 104.06290 | 2719 ft | 252 kts | 187° |
| 2026-05-07 16:29 | 1.03531 | 104.06529 | 3209 ft | 262 kts | 151° |
| 2026-05-07 16:30 | 1.02162 | 104.07724 | 3949 ft | 265 kts | 128° |
| 2026-05-07 16:30 | 1.01020 | 104.09188 | 4691 ft | 269 kts | 128° |
| 2026-05-07 16:30 | 0.99854 | 104.10635 | 5415 ft | 273 kts | 129° |
| 2026-05-07 16:30 | 0.98609 | 104.12076 | 6131 ft | 277 kts | 131° |
| 2026-05-07 16:31 | 0.97304 | 104.13505 | 6833 ft | 281 kts | 133° |
| 2026-05-07 16:31 | 0.95952 | 104.14934 | 7513 ft | 284 kts | 133° |
| 2026-05-07 16:31 | 0.94570 | 104.16365 | 8193 ft | 287 kts | 134° |
| 2026-05-07 16:31 | 0.93188 | 104.17778 | 8852 ft | 289 kts | 134° |
| 2026-05-07 16:32 | 0.91762 | 104.19224 | 9494 ft | 292 kts | 134° |
| 2026-05-07 16:32 | 0.90331 | 104.20673 | 10100 ft | 296 kts | 134° |
| 2026-05-07 16:32 | 0.88865 | 104.22153 | 10452 ft | 309 kts | 134° |
| 2026-05-07 16:32 | 0.87308 | 104.23724 | 10743 ft | 323 kts | 134° |
| 2026-05-07 16:33 | 0.85707 | 104.25339 | 11232 ft | 329 kts | 133° |
| 2026-05-07 16:33 | 0.84083 | 104.26975 | 11825 ft | 331 kts | 134° |
| 2026-05-07 16:33 | 0.82459 | 104.28610 | 12405 ft | 333 kts | 133° |
| 2026-05-07 16:33 | 0.80829 | 104.30250 | 12966 ft | 335 kts | 133° |
| 2026-05-07 16:34 | 0.79177 | 104.31912 | 13497 ft | 337 kts | 133° |
| 2026-05-07 16:34 | 0.77523 | 104.33579 | 13998 ft | 340 kts | 133° |
| 2026-05-07 16:34 | 0.75861 | 104.35252 | 14496 ft | 342 kts | 133° |
| 2026-05-07 16:34 | 0.74179 | 104.36948 | 14983 ft | 345 kts | 133° |
| 2026-05-07 16:35 | 0.72484 | 104.38654 | 15468 ft | 347 kts | 133° |
| 2026-05-07 16:35 | 0.70788 | 104.40362 | 15946 ft | 349 kts | 132° |
| 2026-05-07 16:35 | 0.69076 | 104.42087 | 16406 ft | 351 kts | 132° |
| 2026-05-07 16:35 | 0.67354 | 104.43823 | 16853 ft | 353 kts | 132° |
| 2026-05-07 16:36 | 0.65626 | 104.45564 | 17288 ft | 355 kts | 132° |
| 2026-05-07 16:36 | 0.63867 | 104.47335 | 17718 ft | 357 kts | 132° |
| 2026-05-07 16:36 | 0.62109 | 104.49107 | 18133 ft | 359 kts | 132° |
| 2026-05-07 16:36 | 0.60366 | 104.50861 | 18532 ft | 361 kts | 132° |
| 2026-05-07 16:37 | 0.58583 | 104.52660 | 18924 ft | 363 kts | 132° |
| 2026-05-07 16:37 | 0.56803 | 104.54456 | 19293 ft | 366 kts | 132° |
| 2026-05-07 16:37 | 0.55009 | 104.56264 | 19665 ft | 368 kts | 132° |
| 2026-05-07 16:37 | 0.53181 | 104.58104 | 20048 ft | 369 kts | 132° |
| 2026-05-07 16:38 | 0.51369 | 104.59930 | 20408 ft | 371 kts | 131° |
| 2026-05-07 16:38 | 0.49556 | 104.61756 | 20755 ft | 373 kts | 131° |
| 2026-05-07 16:38 | 0.47816 | 104.63673 | 21092 ft | 374 kts | 126° |
| 2026-05-07 16:38 | 0.46249 | 104.65760 | 21428 ft | 374 kts | 121° |
| 2026-05-07 16:39 | 0.44892 | 104.67950 | 21765 ft | 374 kts | 117° |
| 2026-05-07 16:39 | 0.43587 | 104.70203 | 22095 ft | 376 kts | 117° |
| 2026-05-07 16:39 | 0.42269 | 104.72498 | 22415 ft | 378 kts | 117° |
| 2026-05-07 16:39 | 0.40958 | 104.74779 | 22741 ft | 380 kts | 117° |
| 2026-05-07 16:40 | 0.39639 | 104.77070 | 23060 ft | 382 kts | 117° |
| 2026-05-07 16:40 | 0.38314 | 104.79366 | 23365 ft | 384 kts | 117° |
| 2026-05-07 16:40 | 0.36976 | 104.81684 | 23668 ft | 386 kts | 117° |
| 2026-05-07 16:40 | 0.35644 | 104.83992 | 23972 ft | 388 kts | 117° |
| 2026-05-07 16:41 | 0.34282 | 104.86350 | 24262 ft | 390 kts | 118° |
| 2026-05-07 16:41 | 0.32934 | 104.88686 | 24531 ft | 392 kts | 118° |
| 2026-05-07 16:41 | 0.31570 | 104.91048 | 24808 ft | 395 kts | 118° |
| 2026-05-07 16:41 | 0.30182 | 104.93452 | 25073 ft | 397 kts | 118° |
| 2026-05-07 16:42 | 0.28801 | 104.95840 | 25345 ft | 399 kts | 118° |
| 2026-05-07 16:42 | 0.27415 | 104.98241 | 25610 ft | 401 kts | 118° |
| 2026-05-07 16:42 | 0.26018 | 105.00658 | 25872 ft | 403 kts | 118° |
| 2026-05-07 16:42 | 0.24610 | 105.03095 | 26123 ft | 405 kts | 118° |
| 2026-05-07 16:43 | 0.23209 | 105.05509 | 26372 ft | 407 kts | 118° |
| 2026-05-07 16:43 | 0.21785 | 105.07964 | 26630 ft | 408 kts | 118° |
| 2026-05-07 16:43 | 0.20356 | 105.10430 | 26879 ft | 410 kts | 118° |
| 2026-05-07 16:43 | 0.18943 | 105.12869 | 27126 ft | 411 kts | 118° |
| 2026-05-07 16:44 | 0.17497 | 105.15367 | 27368 ft | 413 kts | 118° |
| 2026-05-07 16:44 | 0.16051 | 105.17866 | 27598 ft | 415 kts | 118° |
| 2026-05-07 16:44 | 0.14617 | 105.20347 | 27825 ft | 416 kts | 118° |
| 2026-05-07 16:44 | 0.13172 | 105.22845 | 28047 ft | 418 kts | 118° |
| 2026-05-07 16:45 | 0.11711 | 105.25369 | 28270 ft | 420 kts | 118° |
| 2026-05-07 16:45 | 0.10248 | 105.27898 | 28485 ft | 422 kts | 118° |
| 2026-05-07 16:45 | 0.08783 | 105.30429 | 28711 ft | 423 kts | 118° |
| 2026-05-07 16:45 | 0.07298 | 105.32996 | 28953 ft | 424 kts | 118° |
| 2026-05-07 16:46 | 0.05827 | 105.35538 | 29176 ft | 425 kts | 118° |
| 2026-05-07 16:46 | 0.04359 | 105.38077 | 29390 ft | 427 kts | 118° |
| 2026-05-07 16:46 | 0.02867 | 105.40658 | 29602 ft | 428 kts | 118° |
| 2026-05-07 16:46 | 0.01366 | 105.43253 | 29802 ft | 430 kts | 118° |
| 2026-05-07 16:47 | -0.00131 | 105.45843 | 30004 ft | 431 kts | 118° |
| 2026-05-07 16:47 | -0.01638 | 105.48447 | 30204 ft | 433 kts | 118° |
| 2026-05-07 16:47 | -0.03141 | 105.51046 | 30419 ft | 434 kts | 118° |
| 2026-05-07 16:47 | -0.04652 | 105.53659 | 30621 ft | 435 kts | 118° |
| 2026-05-07 16:48 | -0.06158 | 105.56264 | 30814 ft | 436 kts | 118° |
| 2026-05-07 16:48 | -0.07676 | 105.58886 | 31011 ft | 437 kts | 118° |
| 2026-05-07 16:48 | -0.09204 | 105.61530 | 31204 ft | 438 kts | 118° |
| 2026-05-07 16:48 | -0.10736 | 105.64180 | 31379 ft | 440 kts | 118° |
| 2026-05-07 16:49 | -0.12262 | 105.66820 | 31551 ft | 441 kts | 118° |
| 2026-05-07 16:49 | -0.13790 | 105.69462 | 31723 ft | 442 kts | 118° |
| 2026-05-07 16:49 | -0.15327 | 105.72121 | 31888 ft | 444 kts | 118° |
| 2026-05-07 16:49 | -0.16884 | 105.74812 | 32058 ft | 445 kts | 118° |
| 2026-05-07 16:50 | -0.18427 | 105.77480 | 32225 ft | 446 kts | 118° |
| 2026-05-07 16:50 | -0.19975 | 105.80157 | 32388 ft | 447 kts | 118° |
| 2026-05-07 16:50 | -0.21529 | 105.82843 | 32590 ft | 447 kts | 118° |
| 2026-05-07 16:50 | -0.23089 | 105.85542 | 32866 ft | 446 kts | 118° |
| 2026-05-07 16:51 | -0.24636 | 105.88217 | 33126 ft | 445 kts | 118° |
| 2026-05-07 16:51 | -0.26168 | 105.90869 | 33318 ft | 446 kts | 118° |
| 2026-05-07 16:51 | -0.27762 | 105.93626 | 33499 ft | 447 kts | 118° |
| 2026-05-07 16:51 | -0.29304 | 105.96294 | 33674 ft | 448 kts | 118° |
| 2026-05-07 16:52 | -0.30863 | 105.98990 | 33865 ft | 448 kts | 118° |
| 2026-05-07 16:52 | -0.32430 | 106.01698 | 34047 ft | 449 kts | 118° |
| 2026-05-07 16:52 | -0.33994 | 106.04404 | 34234 ft | 450 kts | 118° |
| 2026-05-07 16:52 | -0.35557 | 106.07107 | 34408 ft | 450 kts | 118° |
| 2026-05-07 16:53 | -0.37119 | 106.09808 | 34594 ft | 451 kts | 118° |
| 2026-05-07 16:53 | -0.38690 | 106.12525 | 34788 ft | 451 kts | 118° |
| 2026-05-07 16:53 | -0.40246 | 106.15218 | 34832 ft | 451 kts | 118° |
| 2026-05-07 16:54 | -0.43379 | 106.20637 | 34842 ft | 451 kts | 118° |
| 2026-05-07 16:54 | -0.46527 | 106.26086 | 34844 ft | 452 kts | 118° |
| 2026-05-07 16:55 | -0.49654 | 106.31497 | 34843 ft | 452 kts | 118° |
| 2026-05-07 16:55 | -0.52815 | 106.36969 | 34843 ft | 452 kts | 118° |
| 2026-05-07 16:56 | -0.55945 | 106.42392 | 34845 ft | 452 kts | 118° |
| 2026-05-07 16:56 | -0.60764 | 106.50456 | 34842 ft | 452 kts | 122° |
| 2026-05-07 16:57 | -0.64557 | 106.55472 | 34843 ft | 454 kts | 129° |
| 2026-05-07 16:57 | -0.68747 | 106.60223 | 34843 ft | 454 kts | 130° |
| 2026-05-07 16:58 | -0.72959 | 106.64957 | 34842 ft | 454 kts | 130° |
| 2026-05-07 16:58 | -0.77166 | 106.69694 | 34844 ft | 454 kts | 130° |
| 2026-05-07 16:59 | -0.81341 | 106.74398 | 34844 ft | 454 kts | 130° |
| 2026-05-07 16:59 | -0.85545 | 106.79137 | 34843 ft | 454 kts | 129° |
| 2026-05-07 17:00 | -0.89741 | 106.83868 | 34843 ft | 455 kts | 129° |
| 2026-05-07 17:00 | -0.93922 | 106.88584 | 34843 ft | 455 kts | 129° |
| 2026-05-07 17:01 | -0.98140 | 106.93340 | 34842 ft | 455 kts | 129° |
| 2026-05-07 17:01 | -1.02330 | 106.98064 | 34844 ft | 455 kts | 129° |
| 2026-05-07 17:02 | -1.06530 | 107.02801 | 34842 ft | 455 kts | 129° |
| 2026-05-07 17:02 | -1.10764 | 107.07577 | 34840 ft | 455 kts | 129° |
| 2026-05-07 17:03 | -1.14967 | 107.12319 | 34831 ft | 454 kts | 129° |
| 2026-05-07 17:03 | -1.19149 | 107.17039 | 34826 ft | 454 kts | 129° |
| 2026-05-07 17:04 | -1.23351 | 107.21781 | 34825 ft | 455 kts | 129° |
| 2026-05-07 17:04 | -1.27546 | 107.26517 | 34825 ft | 455 kts | 129° |
| 2026-05-07 17:05 | -1.31725 | 107.31235 | 34823 ft | 455 kts | 129° |
| 2026-05-07 17:05 | -1.35917 | 107.35969 | 34822 ft | 454 kts | 129° |
| 2026-05-07 17:06 | -1.40070 | 107.40719 | 34822 ft | 454 kts | 129° |
| 2026-05-07 17:06 | -1.44212 | 107.45519 | 34821 ft | 454 kts | 129° |
| 2026-05-07 17:07 | -1.48328 | 107.50291 | 34821 ft | 454 kts | 129° |
| 2026-05-07 17:07 | -1.52460 | 107.55083 | 34822 ft | 455 kts | 129° |
| 2026-05-07 17:08 | -1.56572 | 107.59847 | 34824 ft | 455 kts | 129° |
| 2026-05-07 17:08 | -1.60716 | 107.64650 | 34827 ft | 455 kts | 129° |
| 2026-05-07 17:09 | -1.64867 | 107.69462 | 34835 ft | 455 kts | 129° |
| 2026-05-07 17:09 | -1.69004 | 107.74257 | 34841 ft | 455 kts | 129° |
| 2026-05-07 17:10 | -1.73127 | 107.79037 | 34842 ft | 455 kts | 129° |
| 2026-05-07 17:10 | -1.77260 | 107.83830 | 34842 ft | 455 kts | 129° |
| 2026-05-07 17:11 | -1.81420 | 107.88652 | 34842 ft | 455 kts | 128° |
| 2026-05-07 17:11 | -1.85550 | 107.93441 | 34842 ft | 455 kts | 128° |
| 2026-05-07 17:12 | -1.89700 | 107.98257 | 34842 ft | 456 kts | 128° |
| 2026-05-07 17:12 | -1.93847 | 108.03070 | 34840 ft | 456 kts | 128° |
| 2026-05-07 17:13 | -1.97970 | 108.07855 | 34842 ft | 456 kts | 128° |
| 2026-05-07 17:13 | -2.02112 | 108.12666 | 34838 ft | 456 kts | 128° |
| 2026-05-07 17:14 | -2.06272 | 108.17491 | 34831 ft | 456 kts | 128° |
| 2026-05-07 17:14 | -2.10422 | 108.22286 | 34827 ft | 456 kts | 128° |
| 2026-05-07 17:15 | -2.14557 | 108.27074 | 34825 ft | 456 kts | 128° |
| 2026-05-07 17:15 | -2.18702 | 108.31877 | 34826 ft | 456 kts | 128° |
| 2026-05-07 17:16 | -2.22865 | 108.36703 | 34827 ft | 456 kts | 128° |
| 2026-05-07 17:16 | -2.26995 | 108.41492 | 34828 ft | 456 kts | 128° |
| 2026-05-07 17:17 | -2.31153 | 108.46316 | 34826 ft | 456 kts | 128° |
| 2026-05-07 17:17 | -2.35285 | 108.51110 | 34825 ft | 456 kts | 128° |
| 2026-05-07 17:18 | -2.39421 | 108.55911 | 34825 ft | 456 kts | 128° |
| 2026-05-07 17:18 | -2.43558 | 108.60716 | 34826 ft | 455 kts | 128° |
| 2026-05-07 17:19 | -2.47710 | 108.65536 | 34827 ft | 455 kts | 128° |
| 2026-05-07 17:19 | -2.51837 | 108.70305 | 34826 ft | 455 kts | 129° |
| 2026-05-07 17:20 | -2.56003 | 108.75110 | 34825 ft | 456 kts | 129° |
| 2026-05-07 17:20 | -2.60154 | 108.79902 | 34824 ft | 455 kts | 129° |
| 2026-05-07 17:21 | -2.64301 | 108.84698 | 34824 ft | 455 kts | 129° |
| 2026-05-07 17:21 | -2.68450 | 108.89496 | 34823 ft | 455 kts | 129° |
| 2026-05-07 17:22 | -2.72584 | 108.94276 | 34822 ft | 455 kts | 128° |
| 2026-05-07 17:22 | -2.76707 | 108.99049 | 34823 ft | 455 kts | 129° |
| 2026-05-07 17:23 | -2.80834 | 109.03825 | 34825 ft | 455 kts | 129° |
| 2026-05-07 17:23 | -2.84976 | 109.08625 | 34825 ft | 455 kts | 129° |
| 2026-05-07 17:24 | -2.89121 | 109.13423 | 34834 ft | 455 kts | 129° |
| 2026-05-07 17:24 | -2.93266 | 109.18218 | 34839 ft | 455 kts | 129° |
| 2026-05-07 17:25 | -2.97394 | 109.23008 | 34840 ft | 455 kts | 129° |
| 2026-05-07 17:25 | -3.01532 | 109.27813 | 34843 ft | 455 kts | 129° |
| 2026-05-07 17:26 | -3.05661 | 109.32609 | 34843 ft | 455 kts | 129° |
| 2026-05-07 17:26 | -3.09786 | 109.37401 | 34843 ft | 455 kts | 129° |
| 2026-05-07 17:27 | -3.13921 | 109.42206 | 34843 ft | 455 kts | 129° |
| 2026-05-07 17:27 | -3.18046 | 109.47001 | 34841 ft | 454 kts | 129° |
| 2026-05-07 17:28 | -3.22158 | 109.51784 | 34838 ft | 455 kts | 129° |
| 2026-05-07 17:28 | -3.26273 | 109.56569 | 34835 ft | 455 kts | 129° |
| 2026-05-07 17:29 | -3.30417 | 109.61387 | 34834 ft | 455 kts | 129° |
| 2026-05-07 17:29 | -3.34558 | 109.66203 | 34835 ft | 455 kts | 129° |
| 2026-05-07 17:30 | -3.38683 | 109.71002 | 34828 ft | 455 kts | 129° |
| 2026-05-07 17:30 | -3.42818 | 109.75814 | 34825 ft | 454 kts | 129° |
| 2026-05-07 17:31 | -3.46942 | 109.80615 | 34823 ft | 455 kts | 129° |
| 2026-05-07 17:31 | -3.51068 | 109.85415 | 34823 ft | 455 kts | 129° |
| 2026-05-07 17:32 | -3.55180 | 109.90202 | 34822 ft | 454 kts | 129° |
| 2026-05-07 17:32 | -3.58621 | 109.94207 | 34821 ft | 454 kts | 129° |
| 2026-05-07 17:33 | -3.63418 | 109.99794 | 34821 ft | 454 kts | 129° |
| 2026-05-07 17:33 | -3.67533 | 110.04588 | 34820 ft | 455 kts | 129° |
| 2026-05-07 17:34 | -3.71667 | 110.09403 | 34821 ft | 455 kts | 129° |
| 2026-05-07 17:34 | -3.75807 | 110.14226 | 34821 ft | 455 kts | 129° |
| 2026-05-07 17:35 | -3.79909 | 110.19009 | 34821 ft | 454 kts | 129° |
| 2026-05-07 17:35 | -3.84031 | 110.23814 | 34821 ft | 455 kts | 129° |
| 2026-05-07 17:36 | -3.88148 | 110.28617 | 34821 ft | 455 kts | 129° |
| 2026-05-07 17:36 | -3.92285 | 110.33446 | 34821 ft | 455 kts | 129° |
| 2026-05-07 17:37 | -3.96383 | 110.38254 | 34820 ft | 455 kts | 128° |
| 2026-05-07 17:37 | -4.00304 | 110.43259 | 34822 ft | 454 kts | 127° |
| 2026-05-07 17:38 | -4.04159 | 110.48252 | 34822 ft | 454 kts | 126° |
| 2026-05-07 17:38 | -4.08007 | 110.53238 | 34822 ft | 454 kts | 126° |
| 2026-05-07 17:39 | -4.11874 | 110.58250 | 34828 ft | 455 kts | 127° |
| 2026-05-07 17:39 | -4.15756 | 110.63281 | 34834 ft | 456 kts | 127° |
| 2026-05-07 17:40 | -4.19611 | 110.68278 | 34839 ft | 456 kts | 127° |
| 2026-05-07 17:40 | -4.23499 | 110.73317 | 34841 ft | 455 kts | 127° |
| 2026-05-07 17:41 | -4.27369 | 110.78325 | 34841 ft | 455 kts | 127° |
| 2026-05-07 17:41 | -4.31247 | 110.83330 | 34842 ft | 455 kts | 127° |
| 2026-05-07 17:42 | -4.35138 | 110.88370 | 34841 ft | 456 kts | 127° |
| 2026-05-07 17:42 | -4.38995 | 110.93379 | 34842 ft | 456 kts | 127° |
| 2026-05-07 17:43 | -4.42885 | 110.98434 | 34841 ft | 456 kts | 127° |
| 2026-05-07 17:43 | -4.46742 | 111.03451 | 34838 ft | 456 kts | 127° |
| 2026-05-07 17:44 | -4.50608 | 111.08481 | 34836 ft | 456 kts | 127° |
| 2026-05-07 17:44 | -4.54489 | 111.13529 | 34832 ft | 456 kts | 127° |
| 2026-05-07 17:45 | -4.58518 | 111.18424 | 34832 ft | 457 kts | 132° |
| 2026-05-07 17:45 | -4.63134 | 111.22832 | 34833 ft | 458 kts | 139° |
| 2026-05-07 17:46 | -4.68266 | 111.26630 | 34834 ft | 459 kts | 146° |
| 2026-05-07 17:46 | -4.73791 | 111.29900 | 34836 ft | 460 kts | 149° |
| 2026-05-07 17:47 | -4.79344 | 111.33081 | 34835 ft | 460 kts | 149° |
| 2026-05-07 17:47 | -4.84922 | 111.36282 | 34832 ft | 460 kts | 149° |
| 2026-05-07 17:48 | -4.90482 | 111.39481 | 34826 ft | 461 kts | 149° |
| 2026-05-07 17:48 | -4.96034 | 111.42676 | 34820 ft | 461 kts | 149° |
| 2026-05-07 17:49 | -5.01592 | 111.45875 | 34823 ft | 461 kts | 149° |
| 2026-05-07 17:49 | -5.07165 | 111.49086 | 34824 ft | 461 kts | 149° |
| 2026-05-07 17:50 | -5.12766 | 111.52314 | 34826 ft | 461 kts | 149° |
| 2026-05-07 17:50 | -5.18386 | 111.55553 | 34826 ft | 462 kts | 149° |
| 2026-05-07 17:51 | -5.23970 | 111.58773 | 34827 ft | 462 kts | 150° |
| 2026-05-07 17:51 | -5.29537 | 111.61982 | 34829 ft | 462 kts | 150° |
| 2026-05-07 17:52 | -5.35158 | 111.65223 | 34830 ft | 463 kts | 150° |
| 2026-05-07 17:52 | -5.40719 | 111.68430 | 34831 ft | 463 kts | 149° |
| 2026-05-07 17:53 | -5.46347 | 111.71677 | 34829 ft | 462 kts | 150° |
| 2026-05-07 17:53 | -5.51890 | 111.74876 | 34831 ft | 462 kts | 150° |
| 2026-05-07 17:54 | -5.57506 | 111.78123 | 34835 ft | 463 kts | 150° |
| 2026-05-07 17:54 | -5.63097 | 111.81348 | 34835 ft | 464 kts | 150° |
| 2026-05-07 17:55 | -5.68710 | 111.84588 | 34840 ft | 463 kts | 150° |
| 2026-05-07 17:55 | -5.74317 | 111.87826 | 34843 ft | 463 kts | 150° |
| 2026-05-07 17:56 | -5.79884 | 111.91040 | 34843 ft | 462 kts | 150° |
| 2026-05-07 17:56 | -5.85327 | 111.94518 | 34836 ft | 462 kts | 139° |
| 2026-05-07 17:57 | -5.88974 | 111.98458 | 34847 ft | 462 kts | 128° |
| 2026-05-07 17:57 | -5.93574 | 112.04378 | 34843 ft | 462 kts | 128° |
| 2026-05-07 17:58 | -5.97551 | 112.09494 | 34843 ft | 463 kts | 128° |
| 2026-05-07 17:58 | -6.01512 | 112.14555 | 34842 ft | 463 kts | 128° |
| 2026-05-07 17:59 | -6.05508 | 112.19647 | 34843 ft | 463 kts | 128° |
| 2026-05-07 17:59 | -6.09491 | 112.24721 | 34845 ft | 463 kts | 128° |
| 2026-05-07 18:00 | -6.13452 | 112.29768 | 34325 ft | 456 kts | 128° |
| 2026-05-07 18:00 | -6.15402 | 112.32253 | 33581 ft | 455 kts | 128° |
| 2026-05-07 18:00 | -6.17366 | 112.34757 | 32820 ft | 454 kts | 128° |
| 2026-05-07 18:01 | -6.19308 | 112.37235 | 32045 ft | 455 kts | 128° |
| 2026-05-07 18:01 | -6.21266 | 112.39731 | 31440 ft | 451 kts | 128° |
| 2026-05-07 18:01 | -6.23177 | 112.42168 | 30955 ft | 446 kts | 128° |
| 2026-05-07 18:01 | -6.25092 | 112.44610 | 30429 ft | 441 kts | 129° |
| 2026-05-07 18:02 | -6.28853 | 112.49406 | 29343 ft | 434 kts | 128° |
| 2026-05-07 18:02 | -6.30721 | 112.51789 | 28793 ft | 430 kts | 129° |
| 2026-05-07 18:02 | -6.32542 | 112.54114 | 28279 ft | 426 kts | 129° |
| 2026-05-07 18:03 | -6.34371 | 112.56447 | 27783 ft | 422 kts | 129° |
| 2026-05-07 18:03 | -6.36186 | 112.58763 | 27267 ft | 418 kts | 129° |
| 2026-05-07 18:03 | -6.37971 | 112.61041 | 26757 ft | 415 kts | 128° |
| 2026-05-07 18:03 | -6.39738 | 112.63296 | 26241 ft | 412 kts | 128° |
| 2026-05-07 18:04 | -6.41515 | 112.65563 | 25726 ft | 408 kts | 128° |
| 2026-05-07 18:04 | -6.43253 | 112.67784 | 25221 ft | 405 kts | 128° |
| 2026-05-07 18:04 | -6.44978 | 112.69987 | 24907 ft | 401 kts | 128° |
| 2026-05-07 18:04 | -6.46713 | 112.72202 | 24672 ft | 398 kts | 128° |
| 2026-05-07 18:05 | -6.48398 | 112.74355 | 24183 ft | 396 kts | 128° |
| 2026-05-07 18:05 | -6.50096 | 112.76525 | 23627 ft | 395 kts | 128° |
| 2026-05-07 18:05 | -6.51801 | 112.78703 | 23123 ft | 392 kts | 128° |
| 2026-05-07 18:05 | -6.53469 | 112.80834 | 22643 ft | 390 kts | 128° |
| 2026-05-07 18:06 | -6.55142 | 112.82972 | 22161 ft | 387 kts | 128° |
| 2026-05-07 18:06 | -6.56807 | 112.85101 | 21665 ft | 384 kts | 128° |
| 2026-05-07 18:06 | -6.58430 | 112.87177 | 21191 ft | 381 kts | 128° |
| 2026-05-07 18:06 | -6.60067 | 112.89272 | 20701 ft | 379 kts | 128° |
| 2026-05-07 18:07 | -6.61689 | 112.91345 | 20223 ft | 377 kts | 128° |
| 2026-05-07 18:07 | -6.63303 | 112.93410 | 19750 ft | 374 kts | 128° |
| 2026-05-07 18:07 | -6.64906 | 112.95461 | 19286 ft | 372 kts | 128° |
| 2026-05-07 18:07 | -6.66499 | 112.97498 | 18812 ft | 370 kts | 128° |
| 2026-05-07 18:08 | -6.68100 | 112.99545 | 18353 ft | 368 kts | 128° |
| 2026-05-07 18:08 | -6.69657 | 113.01537 | 17909 ft | 365 kts | 128° |
| 2026-05-07 18:08 | -6.71240 | 113.03562 | 17446 ft | 363 kts | 128° |
| 2026-05-07 18:08 | -6.72790 | 113.05547 | 17001 ft | 361 kts | 127° |
| 2026-05-07 18:09 | -6.74332 | 113.07520 | 16560 ft | 359 kts | 127° |
| 2026-05-07 18:09 | -6.75863 | 113.09482 | 16142 ft | 357 kts | 127° |
| 2026-05-07 18:09 | -6.77402 | 113.11452 | 15702 ft | 355 kts | 127° |
| 2026-05-07 18:09 | -6.78905 | 113.13378 | 15312 ft | 352 kts | 127° |
| 2026-05-07 18:10 | -6.80417 | 113.15314 | 14894 ft | 349 kts | 127° |
| 2026-05-07 18:10 | -6.81905 | 113.17220 | 14505 ft | 346 kts | 127° |
| 2026-05-07 18:10 | -6.83380 | 113.19111 | 14213 ft | 340 kts | 127° |
| 2026-05-07 18:10 | -6.84816 | 113.20951 | 14064 ft | 329 kts | 127° |
| 2026-05-07 18:11 | -6.86222 | 113.22752 | 13879 ft | 320 kts | 127° |
| 2026-05-07 18:11 | -6.87119 | 113.23902 | 13752 ft | 314 kts | 127° |
| 2026-05-07 18:11 | -6.88904 | 113.26190 | 13337 ft | 309 kts | 127° |
| 2026-05-07 18:11 | -6.90233 | 113.27895 | 12972 ft | 308 kts | 126° |
| 2026-05-07 18:12 | -6.91552 | 113.29563 | 12619 ft | 306 kts | 130° |
| 2026-05-07 18:12 | -6.93240 | 113.30891 | 12223 ft | 308 kts | 153° |
| 2026-05-07 18:12 | -6.95307 | 113.31443 | 11847 ft | 309 kts | 176° |
| 2026-05-07 18:12 | -6.97435 | 113.31212 | 11497 ft | 307 kts | 191° |
| 2026-05-07 18:13 | -6.99515 | 113.30748 | 11149 ft | 305 kts | 192° |
| 2026-05-07 18:13 | -7.01590 | 113.30275 | 10783 ft | 303 kts | 191° |
| 2026-05-07 18:13 | -7.03643 | 113.29815 | 10426 ft | 301 kts | 191° |
| 2026-05-07 18:13 | -7.05678 | 113.29368 | 10070 ft | 299 kts | 191° |
| 2026-05-07 18:14 | -7.07729 | 113.28922 | 9717 ft | 297 kts | 190° |
| 2026-05-07 18:14 | -7.09758 | 113.28484 | 9361 ft | 296 kts | 190° |
| 2026-05-07 18:14 | -7.11761 | 113.28052 | 8998 ft | 294 kts | 190° |
| 2026-05-07 18:14 | -7.13763 | 113.27622 | 8625 ft | 293 kts | 190° |
| 2026-05-07 18:15 | -7.15749 | 113.27196 | 8271 ft | 291 kts | 190° |
| 2026-05-07 18:15 | -7.17724 | 113.26772 | 7911 ft | 290 kts | 190° |
| 2026-05-07 18:15 | -7.19695 | 113.26350 | 7574 ft | 287 kts | 190° |
| 2026-05-07 18:15 | -7.21647 | 113.25929 | 7387 ft | 278 kts | 190° |
| 2026-05-07 18:16 | -7.23516 | 113.25527 | 7214 ft | 269 kts | 190° |
| 2026-05-07 18:16 | -7.25318 | 113.25140 | 7022 ft | 263 kts | 190° |
| 2026-05-07 18:16 | -7.27107 | 113.24755 | 6725 ft | 261 kts | 190° |
| 2026-05-07 18:16 | -7.28876 | 113.24376 | 6418 ft | 260 kts | 190° |
| 2026-05-07 18:17 | -7.30660 | 113.23993 | 6120 ft | 258 kts | 189° |
| 2026-05-07 18:17 | -7.32420 | 113.23614 | 5811 ft | 257 kts | 190° |
| 2026-05-07 18:17 | -7.34161 | 113.23241 | 5531 ft | 255 kts | 189° |
| 2026-05-07 18:17 | -7.35891 | 113.22870 | 5226 ft | 254 kts | 189° |
| 2026-05-07 18:18 | -7.37638 | 113.22496 | 4918 ft | 252 kts | 190° |
| 2026-05-07 18:18 | -7.39342 | 113.22130 | 4632 ft | 251 kts | 190° |
| 2026-05-07 18:18 | -7.41048 | 113.21762 | 4351 ft | 249 kts | 190° |
| 2026-05-07 18:18 | -7.42748 | 113.21397 | 4051 ft | 248 kts | 190° |
| 2026-05-07 18:19 | -7.44412 | 113.20956 | 3739 ft | 249 kts | 204° |
| 2026-05-07 18:19 | -7.45695 | 113.19819 | 3565 ft | 250 kts | 239° |
| 2026-05-07 18:19 | -7.46192 | 113.18121 | 3558 ft | 254 kts | 271° |
| 2026-05-07 18:19 | -7.45904 | 113.16381 | 3571 ft | 255 kts | 284° |
| 2026-05-07 18:20 | -7.45482 | 113.14635 | 3560 ft | 255 kts | 284° |
| 2026-05-07 18:20 | -7.45080 | 113.12920 | 3564 ft | 254 kts | 283° |
| 2026-05-07 18:20 | -7.44691 | 113.11199 | 3559 ft | 246 kts | 283° |
| 2026-05-07 18:20 | -7.44327 | 113.09534 | 3551 ft | 235 kts | 283° |
| 2026-05-07 18:21 | -7.43984 | 113.07948 | 3555 ft | 233 kts | 282° |
| 2026-05-07 18:21 | -7.43641 | 113.06351 | 3558 ft | 233 kts | 282° |
| 2026-05-07 18:21 | -7.43301 | 113.04767 | 3560 ft | 232 kts | 282° |
| 2026-05-07 18:21 | -7.42947 | 113.03184 | 3561 ft | 233 kts | 285° |
| 2026-05-07 18:22 | -7.42449 | 113.01621 | 3555 ft | 232 kts | 290° |
| 2026-05-07 18:22 | -7.42085 | 113.00589 | 3552 ft | 233 kts | 290° |
| 2026-05-07 18:22 | -7.41352 | 112.98545 | 3564 ft | 233 kts | 289° |
| 2026-05-07 18:22 | -7.40925 | 112.96972 | 3562 ft | 232 kts | 281° |
| 2026-05-07 18:23 | -7.40649 | 112.95380 | 3561 ft | 233 kts | 279° |
| 2026-05-07 18:23 | -7.40396 | 112.93755 | 3560 ft | 233 kts | 279° |
| 2026-05-07 18:23 | -7.40146 | 112.92149 | 3555 ft | 232 kts | 279° |
| 2026-05-07 18:23 | -7.39892 | 112.90541 | 3557 ft | 233 kts | 279° |
| 2026-05-07 18:24 | -7.39641 | 112.88975 | 3469 ft | 224 kts | 279° |
| 2026-05-07 18:24 | -7.39396 | 112.87456 | 3336 ft | 215 kts | 279° |
| 2026-05-07 18:24 | -7.39153 | 112.85974 | 3459 ft | 213 kts | 279° |
| 2026-05-07 18:24 | -7.38901 | 112.84500 | 3509 ft | 213 kts | 279° |
| 2026-05-07 18:25 | -7.38555 | 112.83049 | 3515 ft | 213 kts | 297° |
| 2026-05-07 18:25 | -7.37561 | 112.81934 | 3549 ft | 231 kts | 332° |
| 2026-05-07 18:25 | -7.35949 | 112.81439 | 3569 ft | 247 kts | 355° |
| 2026-05-07 18:25 | -7.34228 | 112.81319 | 3553 ft | 249 kts | 360° |
| 2026-05-07 18:26 | -7.32475 | 112.81271 | 3543 ft | 249 kts | 0° |
| 2026-05-07 18:26 | -7.30727 | 112.81234 | 3540 ft | 249 kts | 1° |
| 2026-05-07 18:26 | -7.29002 | 112.81200 | 3540 ft | 249 kts | 1° |
| 2026-05-07 18:26 | -7.27252 | 112.81164 | 3537 ft | 249 kts | 1° |
| 2026-05-07 18:27 | -7.25520 | 112.81126 | 3532 ft | 249 kts | 1° |
| 2026-05-07 18:27 | -7.23776 | 112.81087 | 3524 ft | 245 kts | 1° |
| 2026-05-07 18:27 | -7.22121 | 112.81142 | 3516 ft | 236 kts | 16° |
| 2026-05-07 18:27 | -7.21118 | 112.81561 | 3522 ft | 232 kts | 38° |
| 2026-05-07 18:28 | -7.19972 | 112.83211 | 3509 ft | 208 kts | 82° |
| 2026-05-07 18:28 | -7.20135 | 112.84628 | 3529 ft | 206 kts | 112° |
| 2026-05-07 18:28 | -7.20778 | 112.85917 | 3536 ft | 206 kts | 119° |
| 2026-05-07 18:28 | -7.21505 | 112.87155 | 3534 ft | 206 kts | 120° |
| 2026-05-07 18:29 | -7.22248 | 112.88384 | 3530 ft | 205 kts | 121° |
| 2026-05-07 18:29 | -7.23004 | 112.89623 | 3539 ft | 206 kts | 121° |
| 2026-05-07 18:29 | -7.23746 | 112.90843 | 3538 ft | 205 kts | 121° |
| 2026-05-07 18:29 | -7.24498 | 112.92078 | 3537 ft | 205 kts | 121° |
| 2026-05-07 18:30 | -7.25242 | 112.93296 | 3535 ft | 204 kts | 121° |
| 2026-05-07 18:30 | -7.25988 | 112.94509 | 3536 ft | 205 kts | 121° |
| 2026-05-07 18:30 | -7.26750 | 112.95741 | 3543 ft | 206 kts | 121° |
| 2026-05-07 18:30 | -7.27513 | 112.96970 | 3543 ft | 206 kts | 121° |
| 2026-05-07 18:31 | -7.28266 | 112.98183 | 3546 ft | 206 kts | 121° |
| 2026-05-07 18:31 | -7.29029 | 112.99419 | 3550 ft | 206 kts | 121° |
| 2026-05-07 18:31 | -7.29843 | 113.00605 | 3534 ft | 206 kts | 136° |
| 2026-05-07 18:31 | -7.31088 | 113.01303 | 3534 ft | 210 kts | 166° |
| 2026-05-07 18:32 | -7.32543 | 113.01525 | 3561 ft | 211 kts | 170° |
| 2026-05-07 18:32 | -7.34005 | 113.01735 | 3564 ft | 211 kts | 170° |
| 2026-05-07 18:32 | -7.35470 | 113.01950 | 3555 ft | 210 kts | 169° |
| 2026-05-07 18:32 | -7.36908 | 113.02165 | 3553 ft | 211 kts | 169° |
| 2026-05-07 18:33 | -7.38352 | 113.02381 | 3594 ft | 202 kts | 169° |
| 2026-05-07 18:33 | -7.39746 | 113.02590 | 3614 ft | 201 kts | 169° |
| 2026-05-07 18:33 | -7.41152 | 113.02763 | 3576 ft | 202 kts | 178° |
| 2026-05-07 18:33 | -7.42427 | 113.02286 | 3424 ft | 200 kts | 222° |
| 2026-05-07 18:34 | -7.42981 | 113.01045 | 3117 ft | 198 kts | 270° |
| 2026-05-07 18:34 | -7.42537 | 112.99781 | 2836 ft | 194 kts | 303° |
| 2026-05-07 18:34 | -7.41800 | 112.98618 | 2781 ft | 194 kts | 302° |
| 2026-05-07 18:34 | -7.41190 | 112.97423 | 2635 ft | 190 kts | 290° |
| 2026-05-07 18:35 | -7.40851 | 112.96157 | 2405 ft | 186 kts | 283° |
| 2026-05-07 18:35 | -7.40605 | 112.94891 | 2143 ft | 184 kts | 280° |
| 2026-05-07 18:35 | -7.40391 | 112.93619 | 2096 ft | 185 kts | 279° |
| 2026-05-07 18:35 | -7.40184 | 112.92338 | 2076 ft | 185 kts | 279° |
| 2026-05-07 18:36 | -7.39978 | 112.91054 | 2067 ft | 186 kts | 279° |
| 2026-05-07 18:36 | -7.39771 | 112.89771 | 1952 ft | 177 kts | 279° |
| 2026-05-07 18:36 | -7.39582 | 112.88597 | 1736 ft | 165 kts | 279° |
| 2026-05-07 18:36 | -7.39400 | 112.87469 | 1546 ft | 164 kts | 279° |
| 2026-05-07 18:37 | -7.39215 | 112.86330 | 1352 ft | 163 kts | 279° |
| 2026-05-07 18:37 | -7.39035 | 112.85222 | 1163 ft | 160 kts | 279° |
| 2026-05-07 18:37 | -7.38861 | 112.84158 | 944 ft | 147 kts | 279° |
| 2026-05-07 18:37 | -7.38700 | 112.83166 | 736 ft | 141 kts | 279° |
| 2026-05-07 18:38 | -7.38549 | 112.82204 | 540 ft | 139 kts | 278° |
| 2026-05-07 18:38 | -7.38398 | 112.81249 | 327 ft | 137 kts | 279° |
| 2026-05-07 18:38 | -7.38247 | 112.80306 | 111 ft | 134 kts | 279° |
| 2026-05-07 18:38 | -7.38095 | 112.79382 | 9 ft | 129 kts | 279° |
| 2026-05-07 18:39 | -7.37979 | 112.78635 | 12 ft | 84 kts | 278° |
| 2026-05-07 18:39 | -7.37899 | 112.78215 | 12 ft | 39 kts | 290° |
| 2026-05-07 18:39 | -7.37801 | 112.78062 | 12 ft | 14 kts | 311° |
| 2026-05-07 18:39 | -7.37741 | 112.78021 | 11 ft | 6 kts | 353° |
| 2026-05-07 18:40 | -7.37709 | 112.78040 | 11 ft | 6 kts | 66° |
| 2026-05-07 18:40 | -7.37712 | 112.78096 | 11 ft | 9 kts | 98° |
| 2026-05-07 18:40 | -7.37724 | 112.78172 | 11 ft | 12 kts | 98° |
| 2026-05-07 18:40 | -7.37739 | 112.78268 | 11 ft | 15 kts | 99° |
| 2026-05-07 18:41 | -7.37758 | 112.78379 | 11 ft | 17 kts | 99° |
| 2026-05-07 18:41 | -7.37776 | 112.78490 | 11 ft | 15 kts | 99° |
| 2026-05-07 18:41 | -7.37795 | 112.78608 | 11 ft | 17 kts | 99° |
| 2026-05-07 18:41 | -7.37814 | 112.78721 | 12 ft | 16 kts | 99° |
| 2026-05-07 18:42 | -7.37834 | 112.78842 | 11 ft | 18 kts | 99° |
| 2026-05-07 18:42 | -7.37856 | 112.78977 | 9 ft | 20 kts | 99° |
| 2026-05-07 18:42 | -7.37881 | 112.79121 | 8 ft | 19 kts | 98° |
| 2026-05-07 18:42 | -7.37902 | 112.79263 | 8 ft | 21 kts | 99° |
| 2026-05-07 18:43 | -7.37923 | 112.79394 | 8 ft | 17 kts | 99° |
| 2026-05-07 18:43 | -7.37941 | 112.79504 | 8 ft | 13 kts | 99° |
| 2026-05-07 18:43 | -7.37957 | 112.79601 | 8 ft | 13 kts | 99° |
| 2026-05-07 18:43 | -7.37972 | 112.79694 | 9 ft | 13 kts | 99° |
| 2026-05-07 18:44 | -7.37947 | 112.79779 | 10 ft | 14 kts | 22° |
| 2026-05-07 18:44 | -7.37843 | 112.79797 | 8 ft | 16 kts | 8° |
| 2026-05-07 18:44 | -7.37758 | 112.79812 | 8 ft | 7 kts | 26° |
| 2026-05-07 18:44 | -7.37745 | 112.79847 | 8 ft | 6 kts | 90° |
| 2026-05-07 18:45 | -7.37752 | 112.79894 | 8 ft | 7 kts | 100° |
| 2026-05-07 18:45 | -7.37726 | 112.79924 | 8 ft | 8 kts | 2° |
| 2026-05-07 18:45 | -7.37669 | 112.79932 | 8 ft | 5 kts | 9° |
| 2026-05-07 18:45 | -7.37666 | 112.79932 | 8 ft | 0 kts | 9° |